Time;durP1;ratioP1;P1;durP2;ratioP2;P2;SDS_P1;SDS_P2;PMS_P1;PMS_P2;Temp;Humidity;BMP_temperature;BMP_pressure;BME280_temperature;BME280_humidity;BME280_pressure;Samples;Min_cycle;Max_cycle;Signal;HPM_P1;HPM_P2
2023/06/21 00:02:11;;;;;;;9.73;8.77;;;25.70;90.20;;;;;;5079002;28;20071;-61
2023/06/21 00:04:37;;;;;;;15.77;9.23;;;22.70;99.90;;;;;;5082266;28;20427;-61
2023/06/21 00:07:03;;;;;;;10.90;9.05;;;22.50;99.90;;;;;;5073759;28;20478;-60
2023/06/21 00:09:29;;;;;;;14.18;11.63;;;22.50;99.90;;;;;;5071246;28;20624;-60
2023/06/21 00:11:56;;;;;;;11.77;9.27;;;22.40;99.90;;;;;;5070501;28;20040;-60
2023/06/21 00:14:21;;;;;;;10.77;9.68;;;22.40;99.90;;;;;;5081468;28;20036;-60
2023/06/21 00:16:47;;;;;;;12.13;10.38;;;22.40;99.90;;;;;;5076272;28;20035;-60
2023/06/21 00:19:13;;;;;;;12.70;10.77;;;22.40;99.90;;;;;;5072395;28;20120;-60
2023/06/21 00:21:39;;;;;;;13.30;11.95;;;22.40;99.90;;;;;;5072686;28;20071;-60
2023/06/21 00:24:07;;;;;;;13.02;10.55;;;22.40;99.90;;;;;;5076285;28;20113;-60
2023/06/21 00:26:33;;;;;;;14.15;11.18;;;22.30;99.90;;;;;;5072235;28;20568;-60
2023/06/21 00:28:59;;;;;;;13.15;10.27;;;22.30;99.90;;;;;;5082418;28;20052;-60
2023/06/21 00:31:24;;;;;;;15.68;11.90;;;22.30;99.90;;;;;;5080421;28;20051;-60
2023/06/21 00:33:51;;;;;;;13.73;11.18;;;;;;;;;;5079070;28;20032;-60
2023/06/21 00:36:17;;;;;;;14.50;12.65;;;;;;;;;;5068351;28;20036;-60
2023/06/21 00:38:43;;;;;;;16.85;12.60;;;;;;;;;;5073858;28;20506;-60
2023/06/21 00:41:09;;;;;;;14.90;11.35;;;;;;;;;;5079556;28;20051;-61
2023/06/21 00:43:35;;;;;;;14.85;11.90;;;;;;;;;;5066589;28;20346;-60
2023/06/21 00:46:02;;;;;;;13.35;11.80;;;;;;;;;;5080908;28;20399;-61
2023/06/21 00:48:29;;;;;;;15.43;10.60;;;;;;;;;;5069578;28;20041;-60
2023/06/21 00:50:58;;;;;;;15.35;12.35;;;;;;;;;;5068798;28;20175;-60
2023/06/21 00:53:28;;;;;;;17.58;13.95;;;;;;;;;;5079180;28;20177;-61
2023/06/21 00:55:58;;;;;;;21.13;13.05;;;;;;;;;;5073799;28;20051;-60
2023/06/21 00:58:24;;;;;;;17.65;14.15;;;;;;;;;;5073146;28;20048;-60
2023/06/21 01:00:51;;;;;;;18.73;14.07;;;;;;;;;;5083266;28;20127;-60
2023/06/21 01:03:18;;;;;;;21.45;14.25;;;;;;;;;;5082978;28;20041;-60
2023/06/21 01:05:52;;;;;;;18.77;14.52;;;;;;;;;;5092818;28;20369;-60
2023/06/21 01:08:38;;;;;;;21.35;13.57;;;;;;;;;;5071071;28;20098;-60
2023/06/21 01:11:07;;;;;;;20.60;15.10;;;;;;;;;;5071563;28;20052;-61
2023/06/21 01:13:43;;;;;;;19.17;13.75;;;;;;;;;;5073602;28;20119;-60
2023/06/21 01:16:14;;;;;;;18.48;13.65;;;;;;;;;;5069861;28;20120;-61
2023/06/21 01:18:45;;;;;;;21.80;15.38;;;;;;;;;;5072138;28;20039;-60
2023/06/21 01:21:17;;;;;;;19.85;17.30;;;;;;;;;;5071420;28;20131;-61
2023/06/21 01:24:02;;;;;;;18.55;15.13;;;;;;;;;;5070926;28;20048;-60
2023/06/21 01:26:29;;;;;;;20.95;15.43;;;;;;;;;;5070912;28;20051;-61
2023/06/21 01:28:58;;;;;;;21.35;16.38;;;;;;;;;;5074127;28;20051;-60
2023/06/21 01:31:25;;;;;;;18.00;16.02;;;;;;;;;;5072150;28;20532;-60
2023/06/21 01:33:52;;;;;;;18.08;14.95;;;;;;;;;;5071440;28;20044;-60
2023/06/21 01:36:19;;;;;;;20.10;16.63;;;;;;;;;;5074349;28;20161;-60
2023/06/21 01:38:45;;;;;;;19.40;15.73;;;;;;;;;;5080488;28;20119;-60
2023/06/21 01:41:12;;;;;;;20.83;16.55;;;;;;;;;;5070336;28;20535;-60
2023/06/21 01:43:38;;;;;;;21.30;16.92;;;;;;;;;;5074213;28;20043;-60
2023/06/21 01:46:06;;;;;;;20.65;17.55;;;;;;;;;;5079386;28;20037;-60
2023/06/21 01:48:33;;;;;;;18.70;16.63;;;;;;;;;;5078810;28;20048;-61
2023/06/21 01:51:01;;;;;;;21.50;18.60;;;;;;;;;;5069460;28;20040;-61
2023/06/21 01:53:27;;;;;;;21.83;17.98;;;;;;;;;;5079678;28;20032;-60
2023/06/21 01:55:56;;;;;;;20.50;17.25;;;;;;;;;;5078488;28;20028;-60
2023/06/21 01:58:22;;;;;;;24.23;17.15;;;;;;;;;;5069256;28;20047;-60
2023/06/21 02:00:49;;;;;;;25.17;19.65;;;;;;;;;;5107167;27;20094;-60
2023/06/21 02:03:16;;;;;;;20.92;18.05;;;;;;;;;;5094838;28;20078;-60
2023/06/21 02:05:43;;;;;;;24.85;19.77;;;;;;;;;;5072999;28;20396;-60
2023/06/21 02:08:15;;;;;;;24.75;19.27;;;;;;;;;;5072834;28;20032;-60
2023/06/21 02:10:42;;;;;;;27.80;19.45;;;;;;;;;;5078239;28;20104;-60
2023/06/21 02:13:08;;;;;;;25.80;18.70;;;;;;;;;;5071680;28;20037;-60
2023/06/21 02:15:34;;;;;;;21.25;18.58;;;;;;;;;;5071907;28;20536;-60
2023/06/21 02:18:01;;;;;;;27.75;18.67;;;;;;;;;;5074822;28;20116;-60
2023/06/21 02:20:28;;;;;;;22.40;18.42;;;;;;;;;;5066769;28;20439;-60
2023/06/21 02:22:55;;;;;;;23.25;18.98;;;;;;;;;;5077292;28;20070;-60
2023/06/21 02:25:24;;;;;;;26.27;21.42;;;;;;;;;;5078102;28;20040;-60
2023/06/21 02:27:50;;;;;;;24.80;20.10;;;;;;;;;;5070812;28;20040;-60
2023/06/21 02:30:16;;;;;;;21.85;17.77;;;;;;;;;;5076376;28;20478;-60
2023/06/21 02:32:42;;;;;;;26.35;20.25;;;;;;;;;;5082438;28;20040;-61
2023/06/21 02:35:09;;;;;;;25.20;19.40;;;;;;;;;;5071080;28;20415;-60
2023/06/21 02:37:36;;;;;;;26.20;18.67;;;;;;;;;;5072715;28;20105;-60
2023/06/21 02:40:11;;;;;;;24.02;18.45;;;;;;;;;;5079105;28;20042;-60
2023/06/21 02:42:37;;;;;;;22.45;18.00;;;;;;;;;;5075754;28;20052;-60
2023/06/21 02:45:03;;;;;;;25.35;19.35;;;;;;;;;;5069021;28;20036;-60
2023/06/21 02:47:30;;;;;;;22.73;18.38;;;;;;;;;;5069990;28;20127;-59
2023/06/21 02:49:56;;;;;;;24.83;18.13;;;;;;;;;;5079301;28;20129;-59
2023/06/21 02:52:22;;;;;;;22.48;17.70;;;22.30;99.90;;;;;;5074788;28;20046;-60
2023/06/21 02:54:47;;;;;;;22.45;18.33;;;21.20;99.90;;;;;;5072000;28;20040;-60
2023/06/21 02:57:13;;;;;;;25.05;18.77;;;21.10;99.90;;;;;;5069805;28;20414;-60
2023/06/21 02:59:39;;;;;;;22.45;17.25;;;;;;;;;;5077592;28;20086;-60
2023/06/21 03:02:06;;;;;;;26.55;18.35;;;;;;;;;;5072551;28;20082;-60
2023/06/21 03:04:32;;;;;;;21.98;17.95;;;;;;;;;;5071307;28;20190;-60
2023/06/21 03:07:01;;;;;;;20.30;17.30;;;;;;;;;;5079952;28;20032;-60
2023/06/21 03:09:27;;;;;;;20.90;16.30;;;;;;;;;;5073785;28;20076;-60
2023/06/21 03:11:53;;;;;;;22.45;16.90;;;;;;;;;;5067275;28;20151;-60
2023/06/21 03:14:19;;;;;;;20.27;16.48;;;;;;;;;;5065263;28;20041;-60
2023/06/21 03:16:46;;;;;;;22.33;16.88;;;;;;;;;;5065385;28;20500;-60
2023/06/21 03:19:12;;;;;;;18.50;15.48;;;;;;;;;;5074467;28;20403;-60
2023/06/21 03:21:38;;;;;;;23.65;15.68;;;;;;;;;;5072123;28;20083;-60
2023/06/21 03:24:05;;;;;;;22.27;15.93;;;;;;;;;;5069117;28;20514;-60
2023/06/21 03:26:32;;;;;;;19.88;15.20;;;;;;;;;;5072206;28;20111;-60
2023/06/21 03:29:00;;;;;;;20.20;15.02;;;;;;;;;;5079765;28;20129;-60
2023/06/21 03:31:26;;;;;;;18.45;14.63;;;;;;;;;;5073889;28;20102;-60
2023/06/21 03:33:53;;;;;;;19.40;15.30;;;;;;;;;;5084051;28;20463;-60
2023/06/21 03:36:19;;;;;;;17.92;14.10;;;;;;;;;;5083095;28;20036;-60
2023/06/21 03:38:45;;;;;;;21.63;15.18;;;;;;;;;;5083372;28;20036;-59
2023/06/21 03:41:11;;;;;;;19.17;14.80;;;;;;;;;;5073702;28;20048;-59
2023/06/21 03:43:37;;;;;;;19.08;14.48;;;;;;;;;;5082273;28;20085;-60
2023/06/21 03:46:03;;;;;;;18.13;13.70;;;;;;;;;;5082894;28;20033;-59
2023/06/21 03:48:29;;;;;;;23.58;14.75;;;;;;;;;;5073354;28;20047;-59
2023/06/21 03:50:55;;;;;;;18.88;13.35;;;;;;;;;;5070923;28;20040;-59
2023/06/21 03:53:22;;;;;;;19.50;14.40;;;;;;;;;;5083194;28;20261;-59
2023/06/21 03:55:48;;;;;;;21.83;13.75;;;;;;;;;;5081149;28;20496;-60
2023/06/21 03:58:14;;;;;;;17.77;13.43;;;;;;;;;;5078645;28;20063;-60
2023/06/21 04:00:40;;;;;;;17.55;13.98;;;;;;;;;;5078245;28;20032;-59
2023/06/21 04:03:06;;;;;;;18.25;13.23;;;;;;;;;;5073580;28;20047;-59
2023/06/21 04:05:32;;;;;;;21.80;13.38;;;;;;;;;;5077385;28;20036;-59
2023/06/21 04:07:58;;;;;;;22.83;14.23;;;;;;;;;;5077387;28;20097;-59
2023/06/21 04:10:25;;;;;;;22.25;15.32;;;;;;;;;;5077065;28;20036;-59
2023/06/21 04:12:51;;;;;;;15.60;12.52;;;;;;;;;;5083974;28;20552;-59
2023/06/21 04:15:17;;;;;;;21.23;13.20;;;;;;;;;;5075610;28;20043;-59
2023/06/21 04:17:43;;;;;;;19.13;12.57;;;;;;;;;;5073764;28;20187;-60
2023/06/21 04:20:15;;;;;;;20.15;13.60;;;;;;;;;;5073813;28;20032;-60
2023/06/21 04:22:41;;;;;;;15.07;11.73;;;;;;;;;;5072701;28;20048;-60
2023/06/21 04:25:10;;;;;;;18.52;11.73;;;;;;;;;;5075974;28;20044;-60
2023/06/21 04:27:39;;;;;;;18.02;10.75;;;;;;;;;;5076449;28;20336;-60
2023/06/21 04:30:09;;;;;;;21.17;12.32;;;;;;;;;;5072649;28;20064;-60
2023/06/21 04:32:35;;;;;;;18.52;11.40;;;;;;;;;;5076058;28;20093;-60
2023/06/21 04:35:01;;;;;;;18.33;11.80;;;;;;;;;;5072110;28;20028;-60
2023/06/21 04:37:28;;;;;;;14.77;10.02;;;;;;;;;;5072988;28;20033;-60
2023/06/21 04:39:55;;;;;;;17.20;11.38;;;;;;;;;;5083716;28;20072;-61
2023/06/21 04:42:21;;;;;;;14.80;9.68;;;;;;;;;;5082786;28;20047;-61
2023/06/21 04:44:51;;;;;;;18.00;10.77;;;;;;;;;;5105368;27;20072;-58
2023/06/21 04:47:17;;;;;;;14.18;11.25;;;;;;;;;;5071664;28;20139;-61
2023/06/21 04:49:43;;;;;;;17.73;11.35;;;;;;;;;;5081392;28;20413;-61
2023/06/21 04:52:12;;;;;;;14.90;9.77;;;;;;;;;;5072198;28;20110;-61
2023/06/21 04:54:38;;;;;;;15.65;10.20;;;;;;;;;;5075064;28;20039;-61
2023/06/21 04:57:05;;;;;;;15.63;10.27;;;;;;;;;;5071878;28;20036;-61
2023/06/21 04:59:31;;;;;;;16.38;10.85;;;;;;;;;;5077174;28;20119;-61
2023/06/21 05:01:57;;;;;;;14.85;9.52;;;;;;;;;;5074511;28;20045;-61
2023/06/21 05:04:23;;;;;;;14.57;10.13;;;;;;;;;;5073710;28;20032;-61
2023/06/21 05:06:49;;;;;;;14.73;9.15;;;;;;;;;;5069571;28;20125;-61
2023/06/21 05:09:15;;;;;;;12.27;9.05;;;;;;;;;;5073412;28;20040;-60
2023/06/21 05:11:42;;;;;;;14.18;8.45;;;;;;;;;;5073905;28;20041;-60
2023/06/21 05:14:08;;;;;;;13.98;8.93;;;;;;;;;;5068717;28;20043;-59
2023/06/21 05:16:34;;;;;;;16.40;8.98;;;;;;;;;;5069064;28;20090;-59
2023/06/21 05:19:01;;;;;;;12.23;9.10;;;;;;;;;;5064927;28;20040;-59
2023/06/21 05:21:27;;;;;;;16.00;9.00;;;;;;;;;;5064921;28;20044;-59
2023/06/21 05:23:53;;;;;;;14.80;8.57;;;;;;;;;;5067582;28;20121;-59
2023/06/21 05:26:19;;;;;;;12.57;8.60;;;;;;;;;;5065561;28;22259;-60
2023/06/21 05:28:45;;;;;;;12.07;8.13;;;;;;;;;;5067759;28;20071;-59
2023/06/21 05:31:11;;;;;;;12.80;8.27;;;;;;;;;;5066679;28;20510;-59
2023/06/21 05:33:37;;;;;;;13.80;8.98;;;;;;;;;;5063913;28;20033;-59
2023/06/21 05:36:04;;;;;;;14.35;9.27;;;;;;;;;;5073405;28;20041;-60
2023/06/21 05:38:30;;;;;;;12.13;8.05;;;;;;;;;;5069293;28;20455;-59
2023/06/21 05:40:57;;;;;;;12.98;8.88;;;;;;;;;;5069633;28;20111;-59
2023/06/21 05:43:23;;;;;;;12.55;8.02;;;;;;;;;;5068733;28;20416;-59
2023/06/21 05:45:49;;;;;;;13.25;9.27;;;;;;;;;;5074750;28;20029;-60
2023/06/21 05:48:15;;;;;;;14.52;9.18;;;;;;;;;;5068077;28;20115;-59
2023/06/21 05:50:41;;;;;;;11.32;8.38;;;;;;;;;;5086252;28;20093;-60
2023/06/21 05:53:07;;;;;;;16.23;9.27;;;;;;;;;;5069125;28;20121;-59
2023/06/21 05:55:34;;;;;;;12.10;8.68;;;;;;;;;;5072589;28;20097;-59
2023/06/21 05:58:00;;;;;;;12.23;9.27;;;;;;;;;;5071954;28;20586;-60
2023/06/21 06:00:26;;;;;;;12.82;8.45;;;;;;;;;;5050488;28;20120;-59
2023/06/21 06:02:52;;;;;;;15.07;9.13;;;;;;;;;;5069326;28;20119;-59
2023/06/21 06:05:18;;;;;;;15.23;10.48;;;;;;;;;;5102853;27;20037;-59
2023/06/21 06:07:44;;;;;;;12.57;8.43;;;;;;;;;;5074247;28;20051;-59
2023/06/21 06:10:10;;;;;;;12.85;9.35;;;;;;;;;;5070843;28;20483;-60
2023/06/21 06:12:37;;;;;;;15.18;9.90;;;;;;;;;;5075697;28;20117;-59
2023/06/21 06:15:03;;;;;;;16.00;10.48;;;;;;;;;;5068693;28;20036;-59
2023/06/21 06:17:30;;;;;;;10.90;9.23;;;;;;;;;;5072877;28;20040;-59
2023/06/21 06:19:56;;;;;;;13.35;9.57;;;;;;;;;;5071736;28;20454;-60
2023/06/21 06:22:22;;;;;;;16.15;10.90;;;;;;;;;;5068450;28;20048;-61
2023/06/21 06:24:49;;;;;;;12.38;8.35;;;;;;;;;;5065693;28;20140;-60
2023/06/21 06:27:16;;;;;;;12.43;9.13;;;;;;;;;;5066126;28;20032;-60
2023/06/21 06:29:42;;;;;;;10.95;8.30;;;;;;;;;;5072426;28;20094;-60
2023/06/21 06:32:08;;;;;;;11.75;8.50;;;;;;;;;;5070570;28;20041;-60
2023/06/21 06:34:34;;;;;;;13.00;7.00;;;;;;;;;;5074440;28;20040;-60
2023/06/21 06:37:00;;;;;;;17.55;8.15;;;;;;;;;;5070939;28;20456;-60
2023/06/21 06:39:26;;;;;;;7.40;5.95;;;;;;;;;;5068806;28;20060;-60
2023/06/21 06:41:53;;;;;;;16.65;8.90;;;;;;;;;;5069872;28;20382;-61
2023/06/21 06:44:19;;;;;;;8.50;6.72;;;;;;;;;;5073300;28;20115;-61
2023/06/21 06:46:45;;;;;;;8.52;5.97;;;;;;;;;;5069911;28;20040;-60
2023/06/21 06:49:11;;;;;;;10.50;7.53;;;;;;;;;;5073870;28;20668;-60
2023/06/21 06:51:37;;;;;;;11.70;6.93;;;;;;;;;;5072647;28;20040;-61
2023/06/21 06:54:03;;;;;;;7.15;5.65;;;;;;;;;;5073872;28;20491;-60
2023/06/21 06:56:29;;;;;;;7.45;5.20;;;;;;;;;;5068777;28;20332;-61
2023/06/21 06:58:56;;;;;;;8.35;5.85;;;;;;;;;;5072720;28;20063;-60
2023/06/21 07:01:22;;;;;;;8.23;6.32;;;;;;;;;;5072687;28;20441;-60
2023/06/21 07:03:48;;;;;;;10.25;5.28;;;;;;;;;;5068717;28;20044;-60
2023/06/21 07:06:14;;;;;;;9.00;5.07;;;;;;;;;;5075720;28;20051;-61
2023/06/21 07:08:44;;;;;;;9.00;5.93;;;;;;;;;;5073298;28;20062;-60
2023/06/21 07:11:10;;;;;;;9.35;6.15;;;;;;;;;;5069541;28;20150;-60
2023/06/21 07:13:36;;;;;;;8.95;5.20;;;;;;;;;;5069107;28;20433;-61
2023/06/21 07:16:02;;;;;;;7.00;4.28;;;;;;;;;;5068314;28;20032;-61
2023/06/21 07:18:29;;;;;;;9.18;5.90;;;;;;;;;;5076151;28;20247;-60
2023/06/21 07:20:55;;;;;;;7.30;4.60;;;;;;;;;;5074877;28;20183;-60
2023/06/21 07:23:21;;;;;;;6.15;4.25;;;;;;;;;;5069208;28;20119;-60
2023/06/21 07:25:47;;;;;;;8.77;5.22;;;;;;;;;;5070169;28;20036;-61
2023/06/21 07:28:13;;;;;;;5.72;3.53;;;;;;;;;;5068224;28;20052;-60
2023/06/21 07:30:42;;;;;;;7.03;4.70;;;;;;;;;;5091883;28;20044;-60
2023/06/21 07:33:08;;;;;;;6.22;3.50;;;;;;;;;;5067557;28;20126;-62
2023/06/21 07:35:34;;;;;;;5.78;3.42;;;;;;;;;;5068319;28;20119;-60
2023/06/21 07:38:02;;;;;;;7.70;3.05;;;;;;;;;;5077573;28;20067;-60
2023/06/21 07:40:29;;;;;;;5.57;3.60;;;;;;;;;;5073322;28;20048;-60
2023/06/21 07:42:55;;;;;;;5.47;2.53;;;;;;;;;;5067067;28;20043;-60
2023/06/21 07:45:21;;;;;;;4.15;2.67;;;;;;;;;;5074743;28;20126;-60
2023/06/21 07:47:47;;;;;;;6.65;3.60;;;;;;;;;;5105055;28;20114;-60
2023/06/21 07:50:14;;;;;;;5.40;3.10;;;;;;;;;;5070444;28;20090;-60
2023/06/21 07:52:40;;;;;;;4.53;3.33;;;;;;;;;;5068063;28;20044;-60
2023/06/21 07:55:10;;;;;;;8.40;4.30;;;;;;;;;;5071540;28;20044;-60
2023/06/21 07:57:37;;;;;;;7.97;4.90;;;;;;;;;;5071453;28;20040;-61
2023/06/21 08:00:11;;;;;;;4.20;2.78;;;;;;;;;;5065931;28;20267;-61
2023/06/21 08:02:37;;;;;;;5.40;4.18;;;;;;;;;;5068637;28;20070;-60
2023/06/21 08:05:04;;;;;;;4.78;3.42;;;;;;;;;;5067931;28;20047;-60
2023/06/21 08:07:30;;;;;;;5.32;3.30;;;;;;;;;;5065904;28;20043;-61
2023/06/21 08:09:56;;;;;;;5.30;3.10;;;;;;;;;;5050588;28;20068;-60
2023/06/21 08:12:23;;;;;;;5.40;3.13;;;;;;;;;;5078186;28;20040;-60
2023/06/21 08:14:49;;;;;;;8.38;3.58;;;;;;;;;;5096859;28;20035;-60
2023/06/21 08:17:15;;;;;;;4.68;3.22;;;;;;;;;;5072718;28;20111;-60
2023/06/21 08:19:41;;;;;;;5.10;3.83;;;;;;;;;;5070379;28;20495;-60
2023/06/21 08:22:08;;;;;;;4.55;2.42;;;;;;;;;;5075504;28;20067;-61
2023/06/21 08:24:37;;;;;;;7.10;3.03;;;;;;;;;;5070993;28;20099;-61
2023/06/21 08:27:03;;;;;;;7.15;2.97;;;;;;;;;;5075733;28;20508;-61
2023/06/21 08:29:29;;;;;;;6.82;3.58;;;;;;;;;;5070517;28;20056;-61
2023/06/21 08:31:55;;;;;;;5.35;3.97;;;;;;;;;;5071604;28;20070;-60
2023/06/21 08:34:21;;;;;;;5.82;3.00;;;;;;;;;;5098461;27;20120;-61
2023/06/21 08:36:48;;;;;;;11.15;5.25;;;;;;;;;;5070996;28;20032;-61
2023/06/21 08:39:14;;;;;;;6.32;3.88;;;21.10;99.90;;;;;;5070674;28;20032;-60
2023/06/21 08:41:40;;;;;;;8.45;4.20;;;;;;;;;;5077001;28;20114;-60
2023/06/21 08:44:06;;;;;;;5.45;2.70;;;;;;;;;;5073500;28;20050;-61
2023/06/21 08:46:34;;;;;;;12.45;4.45;;;;;;;;;;5068125;28;20086;-60
2023/06/21 08:49:01;;;;;;;5.55;3.05;;;;;;;;;;5078264;28;20056;-61
2023/06/21 08:51:27;;;;;;;4.20;2.72;;;23.00;99.90;;;;;;5074660;28;20124;-61
2023/06/21 08:53:57;;;;;;;4.35;3.22;;;;;;;;;;5072998;28;20143;-61
2023/06/21 08:56:24;;;;;;;6.53;3.97;;;;;;;;;;5069526;28;20460;-61
2023/06/21 08:58:52;;;;;;;7.80;3.75;;;;;;;;;;5054432;28;20089;-61
2023/06/21 09:01:21;;;;;;;10.05;3.25;;;;;;;;;;5067987;28;20173;-61
2023/06/21 09:03:55;;;;;;;5.15;3.38;;;;;;;;;;5070817;28;20115;-60
2023/06/21 09:06:22;;;;;;;7.85;4.20;;;;;;;;;;5072717;28;20045;-60
2023/06/21 09:08:49;;;;;;;4.20;3.10;;;;;;;;;;5069983;28;20055;-61
2023/06/21 09:11:16;;;;;;;5.28;3.35;;;23.30;99.90;;;;;;5075653;28;20071;-61
2023/06/21 09:13:44;;;;;;;5.70;3.08;;;;;;;;;;5069682;28;20470;-61
2023/06/21 09:16:11;;;;;;;4.30;2.90;;;;;;;;;;5074298;28;20087;-61
2023/06/21 09:18:39;;;;;;;8.27;3.05;;;;;;;;;;5069955;28;20096;-62
2023/06/21 09:21:06;;;;;;;4.57;3.03;;;;;;;;;;5075547;28;20059;-61
2023/06/21 09:23:33;;;;;;;4.32;2.28;;;;;;;;;;5071593;28;20182;-61
2023/06/21 09:25:59;;;;;;;4.63;2.60;;;;;;;;;;5072796;28;20116;-61
2023/06/21 09:28:25;;;;;;;6.65;3.60;;;;;;;;;;5074522;28;20586;-61
2023/06/21 09:30:51;;;;;;;5.85;3.28;;;23.80;99.70;;;;;;5074277;28;20535;-61
2023/06/21 09:33:17;;;;;;;3.30;2.65;;;24.40;98.90;;;;;;5101898;28;20210;-61
2023/06/21 09:35:43;;;;;;;4.32;3.20;;;24.40;98.80;;;;;;5103090;28;20048;-61
2023/06/21 09:38:28;;;;;;;4.65;3.60;;;24.40;98.70;;;;;;5074244;28;20036;-61
2023/06/21 09:40:55;;;;;;;3.75;2.97;;;24.50;98.30;;;;;;5067387;28;20400;-61
2023/06/21 09:43:21;;;;;;;9.00;3.03;;;24.60;98.40;;;;;;5071672;28;20028;-61
2023/06/21 09:46:00;;;;;;;5.85;3.05;;;;;;;;;;5069416;28;20024;-61
2023/06/21 09:48:26;;;;;;;4.15;2.70;;;;;;;;;;5070553;28;20045;-60
2023/06/21 09:50:55;;;;;;;3.47;2.58;;;;;;;;;;5070238;28;20032;-61
2023/06/21 09:53:24;;;;;;;3.80;2.42;;;24.60;98.40;;;;;;5075697;28;20173;-61
2023/06/21 09:55:50;;;;;;;7.93;2.97;;;;;;;;;;5074711;28;20183;-61
2023/06/21 09:58:16;;;;;;;4.25;2.35;;;;;;;;;;5073066;28;20048;-61
2023/06/21 10:00:42;;;;;;;3.67;2.05;;;;;;;;;;5070401;28;20526;-61
2023/06/21 10:03:09;;;;;;;4.57;3.05;;;;;;;;;;5071264;28;20498;-61
2023/06/21 10:05:35;;;;;;;3.20;2.20;;;;;;;;;;5070858;28;20048;-61
2023/06/21 10:08:04;;;;;;;3.78;2.00;;;24.90;98.10;;;;;;5071261;28;20094;-61
2023/06/21 10:10:33;;;;;;;5.82;2.70;;;25.10;97.70;;;;;;5070060;28;20540;-61
2023/06/21 10:12:59;;;;;;;4.55;2.10;;;25.10;97.40;;;;;;5070863;28;20484;-60
2023/06/21 10:15:24;;;;;;;4.75;2.88;;;25.20;97.30;;;;;;5075983;28;20045;-61
2023/06/21 10:17:52;;;;;;;4.05;2.08;;;25.20;97.20;;;;;;5077715;28;20507;-61
2023/06/21 10:20:21;;;;;;;7.32;3.63;;;25.30;97.20;;;;;;5068834;28;20040;-61
2023/06/21 10:22:51;;;;;;;4.22;2.30;;;25.30;97.00;;;;;;5063534;28;20046;-61
2023/06/21 10:25:19;;;;;;;6.28;2.38;;;;;;;;;;5077625;28;20113;-61
2023/06/21 10:27:46;;;;;;;3.40;2.28;;;;;;;;;;5075089;28;20109;-61
2023/06/21 10:30:19;;;;;;;6.05;3.55;;;;;;;;;;5071677;28;20538;-61
2023/06/21 10:32:47;;;;;;;5.03;2.95;;;;;;;;;;5077526;28;20082;-61
2023/06/21 10:35:15;;;;;;;6.38;2.42;;;;;;;;;;5075777;28;20043;-61
2023/06/21 10:37:50;;;;;;;5.90;2.60;;;;;;;;;;5068970;28;20518;-62
2023/06/21 10:40:17;;;;;;;4.13;2.42;;;;;;;;;;5071390;28;20454;-61
2023/06/21 10:42:44;;;;;;;5.35;3.15;;;;;;;;;;5077272;28;20052;-61
2023/06/21 10:45:11;;;;;;;3.20;2.05;;;;;;;;;;5075477;28;20035;-60
2023/06/21 10:47:40;;;;;;;4.15;2.55;;;;;;;;;;5070802;28;20488;-60
2023/06/21 10:50:09;;;;;;;3.50;2.03;;;;;;;;;;5068760;28;20040;-60
2023/06/21 10:52:36;;;;;;;2.97;2.08;;;;;;;;;;5062309;28;20048;-60
2023/06/21 10:55:03;;;;;;;7.72;5.47;;;;;;;;;;5074126;28;20127;-61
2023/06/21 10:57:29;;;;;;;6.05;4.95;;;;;;;;;;5073300;28;20032;-61
2023/06/21 10:59:56;;;;;;;6.97;4.00;;;;;;;;;;5075862;28;20381;-60
2023/06/21 11:02:23;;;;;;;6.10;4.28;;;;;;;;;;5098570;28;20040;-60
2023/06/21 11:05:25;;;;;;;4.05;3.65;;;;;;;;;;5071085;28;20036;-60
2023/06/21 11:08:05;;;;;;;5.30;3.85;;;;;;;;;;5046685;28;20047;-60
2023/06/21 11:10:31;;;;;;;6.63;4.20;;;;;;;;;;5073759;28;20102;-60
2023/06/21 11:12:58;;;;;;;8.90;4.97;;;;;;;;;;5070080;28;20352;-60
2023/06/21 11:15:27;;;;;;;8.68;5.72;;;;;;;;;;5074324;28;20042;-60
2023/06/21 11:18:03;;;;;;;4.15;3.70;;;;;;;;;;5073833;28;20115;-60
2023/06/21 11:20:31;;;;;;;6.90;4.18;;;;;;;;;;5072257;28;20064;-61
2023/06/21 11:23:06;;;;;;;6.90;5.18;;;25.30;97.20;;;;;;5063456;28;20119;-60
2023/06/21 11:25:36;;;;;;;5.93;3.80;;;26.00;95.00;;;;;;5081084;28;20044;-60
2023/06/21 11:28:22;;;;;;;6.95;5.93;;;26.00;94.90;;;;;;5068643;28;20037;-61
2023/06/21 11:31:03;;;;;;;5.38;4.63;;;26.00;94.60;;;;;;5074790;28;20151;-61
2023/06/21 11:33:31;;;;;;;5.78;4.65;;;26.10;94.30;;;;;;5063054;28;20048;-60
2023/06/21 11:36:03;;;;;;;7.88;4.78;;;26.10;94.10;;;;;;5074281;28;20041;-60
2023/06/21 11:38:30;;;;;;;4.20;3.80;;;26.10;93.90;;;;;;5072302;28;20036;-60
2023/06/21 11:40:57;;;;;;;4.60;3.13;;;26.10;93.80;;;;;;5070897;28;20040;-60
2023/06/21 11:43:22;;;;;;;4.40;3.03;;;26.20;94.10;;;;;;5065779;28;20032;-60
2023/06/21 11:46:04;;;;;;;3.75;3.03;;;26.20;93.90;;;;;;5070709;28;20032;-61
2023/06/21 11:48:30;;;;;;;6.93;3.25;;;26.20;93.90;;;;;;5076738;28;20036;-60
2023/06/21 11:51:08;;;;;;;4.00;2.63;;;26.20;93.90;;;;;;5103748;27;20143;-60
2023/06/21 11:53:41;;;;;;;3.20;2.13;;;26.30;93.80;;;;;;5076878;28;20064;-60
2023/06/21 11:56:16;;;;;;;4.32;2.08;;;26.30;93.70;;;;;;5072716;28;20037;-60
2023/06/21 11:58:42;;;;;;;7.10;3.65;;;26.30;93.80;;;;;;5072902;28;20043;-60
2023/06/21 12:01:09;;;;;;;4.32;2.47;;;26.30;93.60;;;;;;5069643;28;20649;-61
2023/06/21 12:03:35;;;;;;;4.80;3.28;;;26.40;93.60;;;;;;5074023;28;20032;-60
2023/06/21 12:06:02;;;;;;;2.78;2.00;;;26.50;93.10;;;;;;5076877;28;20056;-61
2023/06/21 12:08:32;;;;;;;4.63;2.95;;;26.50;93.10;;;;;;5072956;28;20452;-61
2023/06/21 12:11:00;;;;;;;4.68;2.78;;;26.60;92.80;;;;;;5071323;28;20078;-60
2023/06/21 12:13:27;;;;;;;6.78;3.20;;;26.60;92.70;;;;;;5073263;28;20053;-59
2023/06/21 12:15:54;;;;;;;5.70;2.72;;;26.70;92.60;;;;;;5076649;28;20113;-60
2023/06/21 12:18:22;;;;;;;6.10;3.03;;;26.70;92.60;;;;;;5069688;28;20040;-60
2023/06/21 12:20:54;;;;;;;4.40;2.60;;;26.70;92.50;;;;;;5069345;28;20048;-61
2023/06/21 12:23:21;;;;;;;5.35;3.22;;;26.70;92.40;;;;;;5073717;28;20384;-61
2023/06/21 12:25:51;;;;;;;4.38;2.90;;;;;;;;;;5074346;28;20682;-61
2023/06/21 12:28:18;;;;;;;7.10;4.70;;;;;;;;;;5070868;28;20059;-61
2023/06/21 12:30:58;;;;;;;4.03;2.65;;;26.70;92.50;;;;;;5066661;28;20052;-61
2023/06/21 12:33:26;;;;;;;4.53;2.97;;;;;;;;;;5072930;28;20052;-61
2023/06/21 12:35:53;;;;;;;5.70;3.35;;;;;;;;;;5071211;28;20361;-61
2023/06/21 12:38:19;;;;;;;4.28;3.00;;;26.90;93.00;;;;;;5066757;28;20106;-61
2023/06/21 12:40:52;;;;;;;5.35;3.60;;;;;;;;;;5074710;28;20071;-60
2023/06/21 12:43:32;;;;;;;9.02;4.75;;;;;;;;;;5083679;28;20032;-61
2023/06/21 12:45:58;;;;;;;5.05;3.70;;;;;;;;;;5070929;28;20044;-60
2023/06/21 12:48:24;;;;;;;8.35;3.50;;;;;;;;;;5070935;28;20041;-61
2023/06/21 12:50:55;;;;;;;8.00;4.70;;;;;;;;;;5065309;28;20417;-61
2023/06/21 12:53:25;;;;;;;5.88;2.95;;;27.20;93.10;;;;;;5068841;28;20104;-61
2023/06/21 12:55:52;;;;;;;6.90;3.60;;;27.60;93.40;;;;;;5069804;28;20547;-61
2023/06/21 12:58:19;;;;;;;5.43;3.47;;;27.70;93.30;;;;;;5068139;28;20041;-60
2023/06/21 13:00:46;;;;;;;5.28;4.22;;;;;;;;;;5069068;28;20044;-61
2023/06/21 13:03:12;;;;;;;8.05;3.10;;;;;;;;;;5084369;28;20163;-60
2023/06/21 13:05:38;;;;;;;4.50;3.45;;;;;;;;;;5075594;28;20101;-60
2023/06/21 13:08:04;;;;;;;7.20;4.10;;;;;;;;;;5074945;28;20106;-60
2023/06/21 13:10:30;;;;;;;11.40;4.75;;;;;;;;;;5076940;28;20048;-60
2023/06/21 13:12:56;;;;;;;7.25;3.63;;;;;;;;;;5072848;28;20116;-60
2023/06/21 13:15:23;;;;;;;4.95;3.40;;;;;;;;;;5076917;28;20115;-60
2023/06/21 13:17:49;;;;;;;6.78;3.08;;;;;;;;;;5072133;28;21216;-60
2023/06/21 13:20:16;;;;;;;6.82;3.35;;;;;;;;;;5080432;28;20169;-60
2023/06/21 13:22:42;;;;;;;5.25;2.88;;;27.70;93.10;;;;;;5077469;28;20044;-60
2023/06/21 13:25:08;;;;;;;6.25;2.83;;;;;;;;;;5076072;28;20047;-60
2023/06/21 13:27:35;;;;;;;8.25;4.88;;;;;;;;;;5079616;28;20048;-60
2023/06/21 13:30:04;;;;;;;7.47;3.20;;;;;;;;;;5071092;28;20079;-60
2023/06/21 13:32:30;;;;;;;4.78;2.65;;;;;;;;;;5075027;28;20177;-60
2023/06/21 13:34:56;;;;;;;8.98;3.72;;;;;;;;;;5071547;28;20036;-60
2023/06/21 13:37:22;;;;;;;5.78;3.28;;;;;;;;;;5077597;28;20035;-60
2023/06/21 13:39:48;;;;;;;7.03;3.70;;;;;;;;;;5077469;28;20068;-60
2023/06/21 13:42:14;;;;;;;7.40;2.58;;;;;;;;;;5072851;28;20143;-60
2023/06/21 13:44:40;;;;;;;5.07;3.33;;;;;;;;;;5071736;28;20037;-60
2023/06/21 13:47:07;;;;;;;4.55;3.40;;;;;;;;;;5073309;28;20040;-62
2023/06/21 13:49:33;;;;;;;6.95;3.28;;;;;;;;;;5074430;28;20068;-60
2023/06/21 13:51:59;;;;;;;8.38;3.63;;;;;;;;;;5070148;28;20083;-60
2023/06/21 13:54:25;;;;;;;4.13;2.80;;;28.30;92.40;;;;;;5076460;28;20060;-60
2023/06/21 13:56:50;;;;;;;11.68;3.78;;;28.90;91.10;;;;;;5075770;28;20509;-60
2023/06/21 13:59:16;;;;;;;4.85;3.50;;;28.90;90.80;;;;;;5072935;28;20029;-60
2023/06/21 14:01:42;;;;;;;7.25;3.72;;;;;;;;;;5069163;28;20136;-61
2023/06/21 14:04:10;;;;;;;6.90;2.83;;;;;;;;;;5082933;28;20360;-60
2023/06/21 14:06:36;;;;;;;5.78;3.42;;;;;;;;;;5078940;28;20101;-60
2023/06/21 14:09:02;;;;;;;5.40;2.60;;;;;;;;;;5072498;28;20036;-60